createdAt,value
2023-01-26T00:03:38.911Z,7.63
2023-01-26T00:08:43.178Z,8.50
2023-01-26T00:13:46.048Z,7.17
2023-01-26T00:18:49.579Z,7.23
2023-01-26T00:23:52.640Z,7.87
2023-01-26T00:28:55.442Z,7.87
2023-01-26T00:33:59.291Z,7.03
2023-01-26T00:39:01.380Z,6.27
2023-01-26T00:44:03.430Z,8.43
2023-01-26T00:49:07.019Z,6.67
2023-01-26T00:54:09.228Z,7.13
2023-01-26T00:59:11.898Z,7.33
2023-01-26T01:04:15.601Z,6.77
2023-01-26T01:09:18.236Z,6.40
2023-01-26T01:14:20.404Z,6.30
2023-01-26T01:19:23.872Z,7.63
2023-01-26T01:24:25.960Z,7.57
2023-01-26T01:29:28.604Z,6.77
2023-01-26T01:34:32.212Z,9.00
2023-01-26T01:39:34.482Z,8.20
2023-01-26T01:44:37.330Z,9.13
2023-01-26T01:49:46.212Z,8.83
2023-01-26T01:54:54.626Z,8.60
2023-01-26T02:00:01.180Z,8.73
2023-01-26T02:05:18.330Z,8.20
2023-01-26T02:10:21.171Z,8.37
2023-01-26T02:15:23.113Z,9.00
2023-01-26T02:20:32.839Z,8.57
2023-01-26T02:25:42.994Z,7.40
2023-01-26T02:30:46.941Z,7.53
2023-01-26T02:35:49.116Z,7.87
2023-01-26T02:40:55.327Z,7.93
2023-01-26T02:45:59.300Z,7.70
2023-01-26T02:51:01.589Z,6.63
2023-01-26T02:56:03.887Z,7.57
2023-01-26T03:01:07.240Z,6.47
2023-01-26T03:06:10.236Z,7.17
2023-01-26T03:11:12.440Z,6.27
2023-01-26T03:16:16.018Z,6.20
2023-01-26T03:21:18.277Z,5.53
2023-01-26T03:26:20.329Z,6.40
2023-01-26T03:31:24.133Z,6.20
2023-01-26T03:36:26.243Z,5.63
2023-01-26T03:41:28.654Z,5.43
2023-01-26T03:46:32.175Z,5.73
2023-01-26T03:51:34.378Z,5.30
2023-01-26T03:56:36.530Z,5.60
2023-01-26T04:01:41.331Z,5.23
2023-01-26T04:06:45.320Z,5.20
2023-01-26T04:11:47.605Z,6.17
2023-01-26T04:16:51.150Z,6.17
2023-01-26T04:21:53.364Z,7.50
2023-01-26T04:26:55.570Z,6.57
2023-01-26T04:31:59.403Z,5.70
2023-01-26T04:37:01.548Z,5.10
2023-01-26T04:42:03.757Z,5.50
2023-01-26T04:47:07.359Z,4.77
2023-01-26T04:52:09.457Z,5.67
2023-01-26T04:57:11.665Z,5.10
2023-01-26T05:02:19.413Z,5.97
2023-01-26T05:07:21.900Z,5.97
2023-01-26T05:12:23.676Z,5.60
2023-01-26T05:17:26.754Z,5.17
2023-01-26T05:22:28.853Z,5.77
2023-01-26T05:27:30.833Z,4.37
2023-01-26T05:32:42.505Z,5.50
2023-01-26T05:37:44.700Z,5.13
2023-01-26T05:42:46.453Z,4.90
2023-01-26T05:47:49.920Z,4.33
2023-01-26T05:52:51.945Z,4.47
2023-01-26T05:57:53.976Z,5.60
2023-01-26T06:02:57.513Z,5.20
2023-01-26T06:07:59.202Z,5.30
2023-01-26T06:13:05.839Z,4.00
2023-01-26T06:18:09.102Z,4.47
2023-01-26T06:23:11.275Z,4.40
2023-01-26T06:28:12.969Z,3.60
2023-01-26T06:33:16.273Z,3.80
2023-01-26T06:38:17.970Z,4.00
2023-01-26T06:43:19.651Z,4.87
2023-01-26T06:48:22.851Z,5.30
2023-01-26T06:53:32.983Z,5.57
2023-01-26T06:58:34.804Z,6.27
2023-01-26T07:03:38.169Z,5.83
2023-01-26T07:08:40.554Z,5.53
2023-01-26T07:13:42.248Z,5.47
2023-01-26T07:18:45.529Z,5.47
2023-01-26T07:23:47.333Z,4.80
2023-01-26T07:28:49.043Z,5.30
2023-01-26T07:33:52.514Z,5.57
2023-01-26T07:38:54.492Z,5.00
2023-01-26T07:43:56.232Z,5.37
2023-01-26T07:48:59.388Z,5.20
2023-01-26T07:54:01.436Z,5.87
2023-01-26T07:59:03.983Z,5.83
2023-01-26T08:04:07.624Z,5.63
2023-01-26T08:09:10.106Z,6.30
2023-01-26T08:14:12.147Z,5.17
2023-01-26T08:19:15.767Z,5.23
2023-01-26T08:24:17.860Z,6.17
2023-01-26T08:29:20.063Z,6.50
2023-01-26T08:34:23.808Z,6.10
2023-01-26T08:39:26.631Z,6.07
2023-01-26T08:44:28.370Z,5.70
2023-01-26T08:49:31.517Z,5.60
2023-01-26T08:54:33.576Z,4.83
2023-01-26T08:59:35.449Z,4.30
2023-01-26T09:04:39.075Z,5.13
2023-01-26T09:09:41.322Z,5.43
2023-01-26T09:14:43.454Z,4.30
2023-01-26T09:19:47.152Z,5.70
2023-01-26T09:24:49.464Z,4.60
2023-01-26T09:29:51.696Z,4.00
2023-01-26T09:34:55.461Z,4.87
2023-01-26T09:39:57.519Z,4.53
2023-01-26T09:45:10.020Z,5.33
2023-01-26T09:50:19.112Z,4.80
2023-01-26T09:55:23.341Z,4.77
2023-01-26T10:00:31.038Z,5.27
2023-01-26T10:05:41.884Z,5.53
2023-01-26T10:10:48.473Z,5.70
2023-01-26T10:15:54.352Z,5.00
2023-01-26T10:20:59.967Z,5.77
2023-01-26T10:26:12.078Z,5.90
2023-01-26T10:31:18.699Z,5.50
2023-01-26T10:36:23.043Z,4.30
2023-01-26T10:41:29.597Z,4.33
2023-01-26T10:46:34.281Z,5.30
2023-01-26T10:51:39.802Z,4.17
2023-01-26T10:56:45.438Z,4.73
2023-01-26T11:01:55.138Z,3.83
2023-01-26T11:07:23.759Z,3.67
2023-01-26T11:12:25.823Z,3.97
2023-01-26T11:17:35.118Z,2.53
2023-01-26T11:22:47.065Z,3.53
2023-01-26T11:27:59.684Z,3.23
2023-01-26T11:33:07.311Z,4.03
2023-01-26T11:38:25.895Z,4.83
2023-01-26T11:43:45.787Z,3.63
2023-01-26T11:49:00.777Z,3.37
2023-01-26T11:54:37.483Z,3.33
2023-01-26T11:59:44.441Z,2.83
2023-01-26T12:04:46.722Z,2.60
2023-01-26T12:09:50.727Z,3.33
2023-01-26T12:14:57.726Z,2.20
2023-01-26T12:20:05.931Z,3.00
2023-01-26T12:25:23.352Z,3.73
2023-01-26T12:30:34.416Z,4.00
2023-01-26T12:35:52.903Z,3.20
2023-01-26T12:41:06.829Z,3.20
2023-01-26T12:46:11.524Z,2.80
2023-01-26T12:51:20.743Z,2.93
2023-01-26T12:56:29.405Z,3.60
2023-01-26T13:01:40.275Z,2.57
2023-01-26T13:06:42.860Z,3.57
2023-01-26T13:11:52.697Z,2.80
2023-01-26T13:16:55.354Z,2.80
2023-01-26T13:21:57.612Z,3.57
2023-01-26T13:27:01.107Z,3.07
2023-01-26T13:32:36.735Z,3.90
2023-01-26T13:37:49.586Z,3.63
2023-01-26T13:42:58.991Z,3.47
2023-01-26T13:48:05.226Z,4.00
2023-01-26T13:53:28.812Z,4.10
2023-01-26T13:58:32.646Z,4.70
2023-01-26T14:03:34.854Z,3.57
2023-01-26T14:08:38.153Z,4.57
2023-01-26T14:13:41.753Z,4.60
2023-01-26T14:18:43.906Z,4.00
2023-01-26T14:23:46.201Z,4.70
2023-01-26T14:28:49.911Z,5.70
2023-01-26T14:33:53.674Z,4.77
2023-01-26T14:38:57.188Z,4.97
2023-01-26T14:44:01.341Z,6.13
2023-01-26T14:49:08.494Z,5.93
2023-01-26T14:54:19.159Z,6.63
2023-01-26T14:59:25.244Z,6.17
2023-01-26T15:04:36.691Z,6.43
2023-01-26T15:09:38.403Z,6.33
2023-01-26T15:14:50.590Z,6.53
2023-01-26T15:19:53.769Z,6.40
2023-01-26T15:25:02.099Z,6.40
2023-01-26T15:30:06.810Z,7.90
2023-01-26T15:35:20.254Z,6.43
2023-01-26T15:40:21.925Z,6.53
2023-01-26T15:45:27.568Z,7.10
2023-01-26T15:50:29.572Z,8.13
2023-01-26T15:55:33.366Z,6.80
2023-01-26T16:00:36.953Z,7.60
2023-01-26T16:05:39.143Z,6.27
2023-01-26T16:10:40.964Z,7.13
2023-01-26T16:15:46.433Z,6.10
2023-01-26T16:20:49.561Z,7.60
2023-01-26T16:25:52.205Z,6.73
2023-01-26T16:31:01.371Z,6.20
2023-01-26T16:36:04.891Z,7.40
2023-01-26T16:41:12.517Z,6.07
2023-01-26T16:46:16.432Z,6.50
2023-01-26T16:51:21.201Z,7.07
2023-01-26T16:56:24.530Z,8.07
2023-01-26T17:01:32.908Z,8.50
2023-01-26T17:06:34.695Z,6.77
2023-01-26T17:11:36.594Z,7.47
2023-01-26T17:16:40.049Z,7.07
2023-01-26T17:21:42.098Z,7.43
2023-01-26T17:26:44.574Z,6.93
2023-01-26T17:31:47.786Z,6.87
2023-01-26T17:36:49.671Z,6.33
2023-01-26T17:41:52.206Z,8.07
2023-01-26T17:46:55.857Z,6.83
2023-01-26T17:51:57.868Z,6.57
2023-01-26T17:56:59.931Z,6.97
2023-01-26T18:02:03.270Z,6.27
2023-01-26T18:07:05.075Z,7.43
2023-01-26T18:12:07.391Z,6.83
2023-01-26T18:17:10.759Z,8.37
2023-01-26T18:22:13.138Z,6.77
2023-01-26T18:27:15.371Z,7.20
2023-01-26T18:32:19.150Z,7.80
2023-01-26T18:37:21.231Z,7.40
2023-01-26T18:42:24.766Z,7.90
2023-01-26T18:47:29.334Z,7.20
2023-01-26T18:52:31.430Z,7.10
2023-01-26T18:57:36.685Z,8.23
2023-01-26T19:02:44.869Z,7.67
2023-01-26T19:07:47.932Z,6.53
2023-01-26T19:12:50.440Z,6.83
2023-01-26T19:17:53.856Z,7.43
2023-01-26T19:22:56.134Z,8.50
2023-01-26T19:27:57.991Z,9.57
2023-01-26T19:33:01.707Z,8.70
2023-01-26T19:38:04.212Z,7.43
2023-01-26T19:43:06.037Z,7.43
2023-01-26T19:48:09.550Z,7.93
2023-01-26T19:53:11.328Z,7.80
2023-01-26T19:58:13.731Z,7.77
2023-01-26T20:03:21.497Z,7.63
2023-01-26T20:08:24.150Z,7.90
2023-01-26T20:13:25.848Z,8.30
2023-01-26T20:18:29.571Z,7.57
2023-01-26T20:23:31.935Z,7.13
2023-01-26T20:28:35.112Z,6.87
2023-01-26T20:33:39.285Z,7.17
2023-01-26T20:38:41.401Z,7.60
2023-01-26T20:43:58.048Z,7.47
2023-01-26T20:49:04.388Z,6.70
2023-01-26T20:54:07.658Z,8.23
2023-01-26T20:59:11.106Z,6.93
2023-01-26T21:04:14.264Z,6.40
2023-01-26T21:09:16.390Z,5.90
2023-01-26T21:14:18.985Z,6.73
2023-01-26T21:19:22.794Z,7.07
2023-01-26T21:24:25.320Z,7.70
2023-01-26T21:29:27.149Z,7.23
2023-01-26T21:34:30.708Z,7.20
2023-01-26T21:39:32.787Z,6.00
2023-01-26T21:44:34.584Z,5.77
2023-01-26T21:49:37.838Z,6.87
2023-01-26T21:54:40.204Z,5.50
2023-01-26T21:59:42.254Z,6.40
2023-01-26T22:04:45.919Z,5.80
2023-01-26T22:09:47.607Z,7.33
2023-01-26T22:14:50.978Z,6.57
2023-01-26T22:19:54.077Z,7.80
2023-01-26T22:24:56.181Z,8.17
2023-01-26T22:29:57.937Z,6.77
2023-01-26T22:35:01.176Z,6.60
2023-01-26T22:40:03.211Z,7.63
2023-01-26T22:45:06.161Z,6.97
2023-01-26T22:50:11.434Z,6.90
2023-01-26T22:55:13.443Z,5.77
2023-01-26T23:00:16.126Z,5.80
2023-01-26T23:05:19.636Z,5.80
2023-01-26T23:10:22.012Z,6.93
2023-01-26T23:15:24.315Z,5.93
2023-01-26T23:20:27.356Z,5.80
2023-01-26T23:25:29.601Z,6.90
2023-01-26T23:30:32.732Z,6.20
2023-01-26T23:35:36.882Z,6.33
2023-01-26T23:40:39.459Z,6.83
2023-01-26T23:45:43.402Z,6.63
2023-01-26T23:50:47.155Z,5.73
2023-01-26T23:55:49.357Z,7.50
